createdAt,value
2022-10-18T00:02:12.294Z,97687.63
2022-10-18T00:04:38.749Z,97690.13
2022-10-18T00:07:05.167Z,97680.59
2022-10-18T00:09:31.602Z,97684.03
2022-10-18T00:11:58.242Z,97685.72
2022-10-18T00:14:25.120Z,97684.84
2022-10-18T00:16:51.470Z,97693.44
2022-10-18T00:19:17.855Z,97690.06
2022-10-18T00:24:15.492Z,97691.72
2022-10-18T00:26:41.826Z,97689.97
2022-10-18T00:29:13.896Z,97695.09
2022-10-18T00:31:40.387Z,97694.22
2022-10-18T00:34:11.170Z,97689.88
2022-10-18T00:36:37.520Z,97688.16
2022-10-18T00:39:07.224Z,97688.13
2022-10-18T00:41:35.547Z,97694.13
2022-10-18T00:44:26.846Z,97699.22
2022-10-18T00:46:57.872Z,97686.34
2022-10-18T00:49:32.543Z,97692.31
2022-10-18T00:52:02.399Z,97688.81
2022-10-18T00:54:31.014Z,97681.06
2022-10-18T00:56:57.546Z,97679.31
2022-10-18T00:59:24.386Z,97686.13
2022-10-18T01:01:50.811Z,97686.13
2022-10-18T01:04:19.138Z,97686.09
2022-10-18T01:07:01.088Z,97686.16
2022-10-18T01:09:50.964Z,97686.22
2022-10-18T01:12:26.040Z,97684.53
2022-10-18T01:15:14.219Z,97683.56
2022-10-18T01:17:57.729Z,97683.50
2022-10-18T01:20:51.390Z,97690.34
2022-10-18T01:23:41.086Z,97680.97
2022-10-18T01:26:26.247Z,97679.34
2022-10-18T01:29:20.668Z,97677.59
2022-10-18T01:31:53.466Z,97681.75
2022-10-18T01:34:25.944Z,97683.38
2022-10-18T01:36:54.512Z,97693.69
2022-10-18T01:39:25.662Z,97685.97
2022-10-18T01:41:54.611Z,97679.84
2022-10-18T01:44:25.323Z,97673.91
2022-10-18T01:46:55.606Z,97680.81
2022-10-18T01:49:22.595Z,97673.13
2022-10-18T01:51:48.928Z,97674.94
2022-10-18T01:54:21.593Z,97684.31
2022-10-18T01:57:02.463Z,97681.69
2022-10-18T01:59:58.042Z,97680.72
2022-10-18T02:02:44.238Z,97680.75
2022-10-18T02:05:17.911Z,97678.19
2022-10-18T02:08:00.107Z,97679.91
2022-10-18T02:10:43.098Z,97683.38
2022-10-18T02:13:13.018Z,97679.00
2022-10-18T02:15:43.284Z,97681.56
2022-10-18T02:18:25.420Z,97684.16
2022-10-18T02:20:53.067Z,97683.28
2022-10-18T02:23:23.183Z,97683.28
2022-10-18T02:25:50.850Z,97678.16
2022-10-18T02:28:17.502Z,97677.22
2022-10-18T02:31:04.609Z,97673.78
2022-10-18T02:33:51.651Z,97674.56
2022-10-18T02:36:27.238Z,97677.13
2022-10-18T02:39:00.422Z,97677.94
2022-10-18T02:41:27.890Z,97676.22
2022-10-18T02:43:54.303Z,97679.59
2022-10-18T02:46:21.029Z,97667.63
2022-10-18T02:48:47.379Z,97673.63
2022-10-18T02:51:14.160Z,97672.72
2022-10-18T02:53:40.502Z,97676.09
2022-10-18T02:56:07.035Z,97672.72
2022-10-18T02:58:33.351Z,97677.84
2022-10-18T03:00:59.681Z,97675.28
2022-10-18T03:03:26.078Z,97678.66
2022-10-18T03:05:52.782Z,97686.47
2022-10-18T03:08:19.786Z,97680.47
2022-10-18T03:10:46.887Z,97679.59
2022-10-18T03:13:13.384Z,97671.91
2022-10-18T03:15:40.076Z,97672.00
2022-10-18T03:18:06.421Z,97675.38
2022-10-18T03:20:34.996Z,97673.56
2022-10-18T03:23:01.388Z,97676.03
2022-10-18T03:25:27.752Z,97676.88
2022-10-18T03:27:54.100Z,97670.84
2022-10-18T03:30:20.458Z,97676.81
2022-10-18T03:32:46.787Z,97671.75
2022-10-18T03:35:13.125Z,97676.91
2022-10-18T03:37:39.517Z,97678.63
2022-10-18T03:40:07.801Z,97682.13
2022-10-18T03:42:34.646Z,97677.94
2022-10-18T03:45:01.255Z,97675.28
2022-10-18T03:47:27.631Z,97676.97
2022-10-18T03:49:57.007Z,97672.69
2022-10-18T03:52:23.824Z,97671.91
2022-10-18T03:54:50.187Z,97674.50
2022-10-18T03:57:16.696Z,97666.78
2022-10-18T03:59:43.464Z,97672.69
2022-10-18T04:02:09.816Z,97664.91
2022-10-18T04:04:36.186Z,97659.75
2022-10-18T04:07:02.528Z,97664.00
2022-10-18T04:09:28.896Z,97665.75
2022-10-18T04:11:55.228Z,97662.28
2022-10-18T04:14:22.001Z,97663.88
2022-10-18T04:16:48.418Z,97657.81
2022-10-18T04:19:14.830Z,97656.84
2022-10-18T04:21:41.196Z,97659.47
2022-10-18T04:24:07.572Z,97661.06
2022-10-18T04:26:34.068Z,97661.09
2022-10-18T04:29:00.557Z,97666.22
2022-10-18T04:31:27.064Z,97662.81
2022-10-18T04:33:53.603Z,97656.81
2022-10-18T04:36:19.945Z,97665.38
2022-10-18T04:38:46.284Z,97661.19
2022-10-18T04:41:12.621Z,97662.03
2022-10-18T04:43:39.012Z,97659.38
2022-10-18T04:46:05.481Z,97656.81
2022-10-18T04:48:31.831Z,97658.50
2022-10-18T04:50:58.196Z,97655.91
2022-10-18T04:53:24.536Z,97657.56
2022-10-18T04:55:51.310Z,97654.09
2022-10-18T04:58:18.578Z,97649.88
2022-10-18T05:00:45.775Z,97649.00
2022-10-18T05:03:13.947Z,97662.69
2022-10-18T05:06:00.273Z,97656.56
2022-10-18T05:08:27.082Z,97651.38
2022-10-18T05:10:53.497Z,97653.94
2022-10-18T05:13:19.950Z,97644.41
2022-10-18T05:15:47.423Z,97643.44
2022-10-18T05:18:13.864Z,97647.69
2022-10-18T05:20:40.211Z,97643.31
2022-10-18T05:23:06.656Z,97638.97
2022-10-18T05:25:33.103Z,97629.47
2022-10-18T05:28:03.434Z,97649.34
2022-10-18T05:30:38.934Z,97643.34
2022-10-18T05:33:05.894Z,97638.19
2022-10-18T05:35:32.753Z,97641.66
2022-10-18T05:37:59.206Z,97650.97
2022-10-18T05:40:25.595Z,97644.06
2022-10-18T05:42:52.574Z,97636.41
2022-10-18T05:45:19.359Z,97641.50
2022-10-18T05:47:45.866Z,97638.09
2022-10-18T05:50:12.274Z,97648.41
2022-10-18T05:52:38.643Z,97657.13
2022-10-18T05:55:05.492Z,97653.72
2022-10-18T05:57:32.649Z,97649.47
2022-10-18T05:59:59.207Z,97658.91
2022-10-18T06:02:25.650Z,97647.78
2022-10-18T06:04:52.061Z,97652.06
2022-10-18T06:07:18.404Z,97649.59
2022-10-18T06:09:44.721Z,97646.94
2022-10-18T06:12:11.107Z,97645.31
2022-10-18T06:14:37.621Z,97648.78
2022-10-18T06:17:04.262Z,97656.56
2022-10-18T06:19:30.656Z,97660.06
2022-10-18T06:21:57.041Z,97661.00
2022-10-18T06:24:23.398Z,97668.69
2022-10-18T06:26:49.970Z,97672.91
2022-10-18T06:29:16.370Z,97673.75
2022-10-18T06:31:42.706Z,97672.75
2022-10-18T06:34:09.048Z,97680.47
2022-10-18T06:36:35.421Z,97689.13
2022-10-18T06:39:02.531Z,97700.31
2022-10-18T06:41:28.886Z,97696.91
2022-10-18T06:43:57.457Z,97694.28
2022-10-18T06:46:25.602Z,97695.97
2022-10-18T06:48:52.021Z,97697.66
2022-10-18T06:51:18.457Z,97690.69
2022-10-18T06:53:59.258Z,97704.50
2022-10-18T06:56:31.450Z,97719.16
2022-10-18T07:01:25.297Z,97730.34
2022-10-18T07:03:53.742Z,97723.69
2022-10-18T07:06:21.171Z,97714.34
2022-10-18T07:08:49.252Z,97717.91
2022-10-18T07:11:18.760Z,97724.00
2022-10-18T07:13:45.536Z,97717.13
2022-10-18T07:16:17.357Z,97711.84
2022-10-18T07:18:48.378Z,97716.28
2022-10-18T07:21:16.999Z,97718.91
2022-10-18T07:23:46.142Z,97712.88
2022-10-18T07:26:20.525Z,97719.78
2022-10-18T07:28:50.221Z,97714.72
2022-10-18T07:31:17.180Z,97719.09
2022-10-18T07:33:43.657Z,97716.50
2022-10-18T07:36:12.376Z,97707.22
2022-10-18T07:38:39.111Z,97707.00
2022-10-18T07:41:07.512Z,97698.41
2022-10-18T07:43:34.963Z,97701.03
2022-10-18T07:46:04.125Z,97698.63
2022-10-18T07:48:30.959Z,97698.63
2022-10-18T07:51:01.805Z,97701.34
2022-10-18T07:53:29.264Z,97726.25
2022-10-18T07:56:01.393Z,97722.03
2022-10-18T07:58:31.435Z,97710.50
2022-10-18T08:00:57.973Z,97707.72
2022-10-18T08:03:24.361Z,97714.56
2022-10-18T08:05:55.306Z,97704.03
2022-10-18T08:08:23.764Z,97690.41
2022-10-18T08:10:50.647Z,97697.53
2022-10-18T08:13:17.127Z,97720.75
2022-10-18T08:15:43.696Z,97719.22
2022-10-18T08:18:10.576Z,97715.03
2022-10-18T08:20:37.076Z,97713.44
2022-10-18T08:23:04.520Z,97713.31
2022-10-18T08:25:31.027Z,97707.34
2022-10-18T08:27:57.680Z,97706.50
2022-10-18T08:30:24.118Z,97713.41
2022-10-18T08:32:50.491Z,97705.88
2022-10-18T08:35:16.928Z,97705.25
2022-10-18T08:37:45.258Z,97711.25
2022-10-18T08:40:15.223Z,97704.59
2022-10-18T08:43:04.787Z,97695.84
2022-10-18T08:45:42.536Z,97700.00
2022-10-18T08:48:21.848Z,97701.72
2022-10-18T08:50:50.787Z,97689.69
2022-10-18T08:53:24.006Z,97689.81
2022-10-18T08:55:54.753Z,97694.00
2022-10-18T08:58:23.824Z,97680.38
2022-10-18T09:01:13.664Z,97688.63
2022-10-18T09:04:07.792Z,97690.56
2022-10-18T09:06:37.096Z,97681.91
2022-10-18T09:09:36.218Z,97689.34
2022-10-18T09:12:53.450Z,97685.19
2022-10-18T09:15:48.949Z,97683.59
2022-10-18T09:18:40.350Z,97687.03
2022-10-18T09:21:20.202Z,97697.47
2022-10-18T09:24:01.171Z,97688.09
2022-10-18T09:26:27.711Z,97693.25
2022-10-18T09:29:16.414Z,97698.28
2022-10-18T09:31:42.764Z,97694.81
2022-10-18T09:34:22.926Z,97689.66
2022-10-18T09:36:51.919Z,97687.19
2022-10-18T09:39:30.166Z,97691.34
2022-10-18T09:42:03.661Z,97685.16
2022-10-18T09:44:39.645Z,97684.09
2022-10-18T09:47:16.882Z,97688.69
2022-10-18T09:49:51.359Z,97695.72
2022-10-18T09:52:28.236Z,97697.78
2022-10-18T09:55:00.006Z,97693.69
2022-10-18T09:57:41.064Z,97688.81
2022-10-18T10:00:16.185Z,97686.31
2022-10-18T10:02:42.625Z,97695.00
2022-10-18T10:05:14.166Z,97689.03
2022-10-18T10:07:47.369Z,97697.59
2022-10-18T10:10:20.039Z,97691.69
2022-10-18T10:12:47.115Z,97675.41
2022-10-18T10:15:21.063Z,97679.72
2022-10-18T10:18:03.245Z,97677.88
2022-10-18T10:20:42.258Z,97665.53
2022-10-18T10:23:30.612Z,97666.69
2022-10-18T10:26:01.111Z,97669.56
2022-10-18T10:28:35.156Z,97679.34
2022-10-18T10:31:28.745Z,97670.69
2022-10-18T10:34:01.775Z,97663.19
2022-10-18T10:36:29.495Z,97671.91
2022-10-18T10:39:13.478Z,97663.34
2022-10-18T10:41:41.338Z,97662.25
2022-10-18T10:44:16.732Z,97646.53
2022-10-18T10:46:43.237Z,97641.50
2022-10-18T10:49:40.163Z,97642.06
2022-10-18T10:52:09.255Z,97645.34
2022-10-18T10:54:52.124Z,97647.47
2022-10-18T10:57:23.877Z,97643.44
2022-10-18T10:59:53.531Z,97636.41
2022-10-18T11:02:31.196Z,97636.41
2022-10-18T11:05:25.051Z,97622.78
2022-10-18T11:07:55.425Z,97626.31
2022-10-18T11:10:30.680Z,97607.13
2022-10-18T11:13:17.725Z,97609.53
2022-10-18T11:15:52.338Z,97606.63
2022-10-18T11:18:25.332Z,97602.66
2022-10-18T11:21:07.831Z,97591.06
2022-10-18T11:23:37.134Z,97594.16
2022-10-18T11:26:12.621Z,97591.41
2022-10-18T11:28:39.046Z,97592.03
2022-10-18T11:31:17.534Z,97591.59
2022-10-18T11:34:11.592Z,97583.22
2022-10-18T11:37:27.240Z,97579.94
2022-10-18T11:40:12.825Z,97574.72
2022-10-18T11:43:00.751Z,97569.75
2022-10-18T11:45:36.175Z,97570.38
2022-10-18T11:48:16.426Z,97570.09
2022-10-18T11:50:54.965Z,97562.91
2022-10-18T11:53:29.442Z,97549.81
2022-10-18T11:56:19.566Z,97559.91
2022-10-18T11:58:54.746Z,97555.22
2022-10-18T12:01:32.512Z,97559.84
2022-10-18T12:04:09.363Z,97558.50
2022-10-18T12:06:41.489Z,97571.09
2022-10-18T12:09:28.520Z,97573.94
2022-10-18T12:12:20.430Z,97572.88
2022-10-18T12:14:54.785Z,97580.75
2022-10-18T12:17:43.138Z,97570.88
2022-10-18T12:20:16.970Z,97571.66
2022-10-18T12:22:49.917Z,97571.28
2022-10-18T12:25:18.054Z,97566.94
2022-10-18T12:27:53.063Z,97574.50
2022-10-18T12:30:46.928Z,97577.00
2022-10-18T12:33:27.684Z,97569.53
2022-10-18T12:36:00.994Z,97556.53
2022-10-18T12:38:31.637Z,97558.00
2022-10-18T12:40:59.198Z,97547.00
2022-10-18T12:43:33.970Z,97556.44
2022-10-18T12:46:03.837Z,97553.63
2022-10-18T12:48:36.383Z,97541.44
2022-10-18T12:51:16.659Z,97535.53
2022-10-18T12:53:50.412Z,97545.19
2022-10-18T12:56:43.222Z,97540.28
2022-10-18T12:59:15.718Z,97544.69
2022-10-18T13:02:05.256Z,97543.09
2022-10-18T13:04:32.425Z,97547.09
2022-10-18T13:07:02.953Z,97554.56
2022-10-18T13:09:37.270Z,97563.88
2022-10-18T13:12:09.711Z,97568.78
2022-10-18T13:15:12.399Z,97571.34
2022-10-18T13:17:59.903Z,97560.91
2022-10-18T13:20:31.886Z,97582.63
2022-10-18T13:23:07.393Z,97581.03
2022-10-18T13:25:54.129Z,97585.81
2022-10-18T13:28:24.483Z,97582.34
2022-10-18T13:31:22.800Z,97582.72
2022-10-18T13:33:49.458Z,97584.47
2022-10-18T13:36:22.814Z,97583.19
2022-10-18T13:38:57.553Z,97587.53
2022-10-18T13:41:35.442Z,97588.50
2022-10-18T13:44:02.079Z,97588.41
2022-10-18T13:46:34.122Z,97594.31
2022-10-18T13:49:14.887Z,97591.97
2022-10-18T13:52:03.434Z,97593.78
2022-10-18T13:54:55.915Z,97595.44
2022-10-18T13:57:55.210Z,97597.94
2022-10-18T14:00:36.884Z,97592.72
2022-10-18T14:03:56.224Z,97590.78
2022-10-18T14:06:25.949Z,97589.78
2022-10-18T14:08:57.934Z,97594.03
2022-10-18T14:11:34.088Z,97593.16
2022-10-18T14:14:13.378Z,97586.41
2022-10-18T14:16:46.906Z,97595.94
2022-10-18T14:19:30.192Z,97598.66
2022-10-18T14:22:11.552Z,97592.72
2022-10-18T14:24:43.479Z,97593.63
2022-10-18T14:27:18.301Z,97592.94
2022-10-18T14:29:45.903Z,97601.69
2022-10-18T14:32:28.173Z,97608.00
2022-10-18T14:35:27.358Z,97603.84
2022-10-18T14:37:47.505Z,97609.16
2022-10-18T14:40:39.219Z,97604.84
2022-10-18T14:43:12.722Z,97616.84
2022-10-18T14:45:42.939Z,97612.34
2022-10-18T14:48:24.401Z,97613.03
2022-10-18T14:50:59.360Z,97607.75
2022-10-18T14:53:34.462Z,97611.22
2022-10-18T14:56:05.742Z,97605.06
2022-10-18T14:58:34.704Z,97604.28
2022-10-18T15:01:01.186Z,97608.78
2022-10-18T15:03:28.378Z,97610.50
2022-10-18T15:06:00.391Z,97608.94
2022-10-18T15:08:32.630Z,97604.63
2022-10-18T15:10:59.243Z,97601.19
2022-10-18T15:13:27.507Z,97602.16
2022-10-18T15:15:55.727Z,97603.06
2022-10-18T15:18:25.504Z,97597.88
2022-10-18T15:21:21.513Z,97599.63
2022-10-18T15:23:51.233Z,97593.66
2022-10-18T15:26:33.001Z,97593.72
2022-10-18T15:29:01.590Z,97592.16
2022-10-18T15:31:34.857Z,97594.97
2022-10-18T15:34:23.425Z,97594.22
2022-10-18T15:36:51.556Z,97589.03
2022-10-18T15:39:21.882Z,97581.41
2022-10-18T15:41:51.442Z,97590.16
2022-10-18T15:44:21.517Z,97593.72
2022-10-18T15:46:49.291Z,97592.06
2022-10-18T15:49:24.634Z,97579.13
2022-10-18T15:52:32.565Z,97581.00
2022-10-18T15:55:02.526Z,97589.72
2022-10-18T15:57:31.408Z,97592.38
2022-10-18T16:00:02.083Z,97593.28
2022-10-18T16:02:29.028Z,97592.53
2022-10-18T16:04:55.737Z,97597.75
2022-10-18T16:07:22.251Z,97596.09
2022-10-18T16:09:48.574Z,97600.47
2022-10-18T16:12:14.953Z,97603.97
2022-10-18T16:14:41.291Z,97610.06
2022-10-18T16:17:07.855Z,97616.13
2022-10-18T16:19:34.246Z,97612.75
2022-10-18T16:22:06.069Z,97617.16
2022-10-18T16:24:33.271Z,97621.50
2022-10-18T16:26:59.643Z,97615.53
2022-10-18T16:29:28.397Z,97621.63
2022-10-18T16:31:57.971Z,97623.38
2022-10-18T16:34:26.944Z,97626.81
2022-10-18T16:36:53.790Z,97617.38
2022-10-18T16:39:21.568Z,97621.69
2022-10-18T16:41:48.622Z,97630.31
2022-10-18T16:44:16.656Z,97626.81
2022-10-18T16:46:43.038Z,97638.91
2022-10-18T16:49:22.626Z,97634.59
2022-10-18T16:51:50.019Z,97637.19
2022-10-18T16:54:16.528Z,97649.25
2022-10-18T16:56:42.872Z,97656.16
2022-10-18T16:59:20.459Z,97655.31
2022-10-18T17:01:46.867Z,97658.78
2022-10-18T17:04:13.403Z,97660.50
2022-10-18T17:06:39.890Z,97669.16
2022-10-18T17:09:06.249Z,97676.06
2022-10-18T17:11:32.619Z,97670.03
2022-10-18T17:13:58.954Z,97670.88
2022-10-18T17:16:30.819Z,97676.94
2022-10-18T17:18:59.215Z,97680.38
2022-10-18T17:21:27.042Z,97672.59
2022-10-18T17:23:53.507Z,97670.03
2022-10-18T17:26:30.100Z,97664.00
2022-10-18T17:29:03.995Z,97672.66
2022-10-18T17:31:32.272Z,97675.25
2022-10-18T17:34:01.368Z,97674.41
2022-10-18T17:36:31.909Z,97680.41
2022-10-18T17:38:58.494Z,97684.75
2022-10-18T17:41:24.835Z,97695.13
2022-10-18T17:43:51.299Z,97689.06
2022-10-18T17:46:18.204Z,97692.53
2022-10-18T17:48:45.326Z,97690.78
2022-10-18T17:51:14.463Z,97699.44
2022-10-18T17:53:41.013Z,97695.97
2022-10-18T17:56:10.356Z,97696.84
2022-10-18T17:58:36.811Z,97705.47
2022-10-18T18:01:14.565Z,97714.09
2022-10-18T18:03:41.347Z,97719.28
2022-10-18T18:06:18.436Z,97714.97
2022-10-18T18:08:45.406Z,97715.84
2022-10-18T18:11:12.198Z,97719.31
2022-10-18T18:13:38.857Z,97721.91
2022-10-18T18:16:12.885Z,97721.03
2022-10-18T18:18:39.423Z,97718.44
2022-10-18T18:21:05.888Z,97718.47
2022-10-18T18:23:32.339Z,97716.72
2022-10-18T18:25:58.979Z,97719.34
2022-10-18T18:28:25.413Z,97714.16
2022-10-18T18:30:51.798Z,97709.00
2022-10-18T18:33:18.152Z,97693.47
2022-10-18T18:35:44.500Z,97704.69
2022-10-18T18:38:10.856Z,97700.41
2022-10-18T18:40:37.224Z,97693.50
2022-10-18T18:43:12.391Z,97702.13
2022-10-18T18:45:50.489Z,97701.25
2022-10-18T18:48:19.145Z,97702.13
2022-10-18T18:50:49.939Z,97698.69
2022-10-18T18:53:16.739Z,97702.13
2022-10-18T18:55:43.137Z,97710.75
2022-10-18T18:58:11.055Z,97716.75
2022-10-18T19:00:43.369Z,97719.31
2022-10-18T19:03:11.347Z,97718.47
2022-10-18T19:05:38.149Z,97725.38
2022-10-18T19:08:05.613Z,97719.31
2022-10-18T19:10:32.126Z,97718.47
2022-10-18T19:12:58.575Z,97719.28
2022-10-18T19:15:24.993Z,97719.28
2022-10-18T19:17:51.313Z,97717.56
2022-10-18T19:20:18.106Z,97721.81
2022-10-18T19:22:45.424Z,97719.25
2022-10-18T19:25:11.874Z,97722.66
2022-10-18T19:27:38.475Z,97711.47
2022-10-18T19:30:08.027Z,97715.75
2022-10-18T19:32:34.669Z,97713.16
2022-10-18T19:35:01.111Z,97708.84
2022-10-18T19:37:27.544Z,97715.72
2022-10-18T19:39:53.985Z,97713.13
2022-10-18T19:42:26.115Z,97714.78
2022-10-18T19:44:54.945Z,97713.03
2022-10-18T19:47:21.399Z,97719.03
2022-10-18T19:49:48.051Z,97716.44
2022-10-18T19:52:14.561Z,97713.00
2022-10-18T19:54:41.077Z,97716.44
2022-10-18T19:57:07.776Z,97711.28
2022-10-18T19:59:35.865Z,97712.97
2022-10-18T20:02:04.566Z,97717.28
2022-10-18T20:04:34.281Z,97715.50
2022-10-18T20:07:02.527Z,97718.09
2022-10-18T20:09:29.150Z,97717.19
2022-10-18T20:11:55.500Z,97721.50
2022-10-18T20:14:21.915Z,97718.09
2022-10-18T20:16:48.248Z,97712.91
2022-10-18T20:19:14.576Z,97706.88
2022-10-18T20:21:40.983Z,97716.28
2022-10-18T20:24:09.170Z,97710.22
2022-10-18T20:26:35.868Z,97700.69
2022-10-18T20:29:02.965Z,97700.66
2022-10-18T20:31:35.565Z,97709.25
2022-10-18T20:34:04.316Z,97699.72
2022-10-18T20:36:31.876Z,97712.63
2022-10-18T20:38:59.076Z,97710.84
2022-10-18T20:41:37.992Z,97715.97
2022-10-18T20:44:09.619Z,97716.06
2022-10-18T20:46:37.728Z,97716.06
2022-10-18T20:49:06.186Z,97715.19
2022-10-18T20:51:33.677Z,97717.78
2022-10-18T20:54:01.882Z,97719.53
2022-10-18T20:56:28.400Z,97719.56
2022-10-18T20:58:56.711Z,97724.81
2022-10-18T21:01:34.305Z,97722.25
2022-10-18T21:04:03.124Z,97719.66
2022-10-18T21:06:31.585Z,97717.97
2022-10-18T21:09:00.499Z,97729.13
2022-10-18T21:11:28.392Z,97724.81
2022-10-18T21:13:58.821Z,97719.59
2022-10-18T21:16:26.074Z,97727.28
2022-10-18T21:18:52.414Z,97720.38
2022-10-18T21:21:22.766Z,97725.53
2022-10-18T21:23:49.903Z,97715.16
2022-10-18T21:26:19.202Z,97719.44
2022-10-18T21:28:46.658Z,97721.13
2022-10-18T21:31:17.139Z,97718.50
2022-10-18T21:33:44.866Z,97715.97
2022-10-18T21:36:12.178Z,97714.22
2022-10-18T21:38:39.215Z,97712.47
2022-10-18T21:41:10.655Z,97713.28
2022-10-18T21:43:41.157Z,97702.03
2022-10-18T21:46:08.038Z,97712.31
2022-10-18T21:48:34.392Z,97702.84
2022-10-18T21:51:04.916Z,97700.22
2022-10-18T21:53:31.423Z,97697.56
2022-10-18T21:56:08.428Z,97698.41
2022-10-18T21:58:36.339Z,97712.88
2022-10-18T22:01:12.321Z,97704.25
2022-10-18T22:03:38.875Z,97711.09
2022-10-18T22:06:08.952Z,97703.34
2022-10-18T22:08:36.083Z,97701.66
2022-10-18T22:11:04.676Z,97707.66
2022-10-18T22:13:31.247Z,97693.81
2022-10-18T22:16:02.302Z,97699.84
2022-10-18T22:18:29.550Z,97698.16
2022-10-18T22:21:07.046Z,97692.13
2022-10-18T22:23:35.255Z,97701.53
2022-10-18T22:26:09.855Z,97692.88
2022-10-18T22:28:36.966Z,97690.28
2022-10-18T22:31:04.256Z,97687.66
2022-10-18T22:33:30.753Z,97691.91
2022-10-18T22:35:57.215Z,97697.06
2022-10-18T22:38:23.880Z,97693.66
2022-10-18T22:40:50.279Z,97698.75
2022-10-18T22:43:16.676Z,97697.84
2022-10-18T22:45:43.072Z,97685.81
2022-10-18T22:48:09.493Z,97685.78
2022-10-18T22:50:35.833Z,97683.22
2022-10-18T22:53:02.166Z,97691.84
2022-10-18T22:55:28.511Z,97692.63
2022-10-18T22:57:55.822Z,97683.97
2022-10-18T23:00:22.266Z,97689.06
2022-10-18T23:02:49.719Z,97682.22
2022-10-18T23:05:16.289Z,97677.84
2022-10-18T23:07:47.547Z,97678.66
2022-10-18T23:10:14.013Z,97681.22
2022-10-18T23:12:40.384Z,97679.47
2022-10-18T23:15:07.520Z,97674.28
2022-10-18T23:17:34.041Z,97675.16
2022-10-18T23:20:00.475Z,97670.06
2022-10-18T23:22:26.862Z,97680.31
2022-10-18T23:24:53.235Z,97680.31
2022-10-18T23:27:19.612Z,97681.13
2022-10-18T23:29:45.926Z,97671.66
2022-10-18T23:32:12.257Z,97679.34
2022-10-18T23:34:38.586Z,97680.22
2022-10-18T23:37:05.066Z,97675.91
2022-10-18T23:39:31.422Z,97679.31
2022-10-18T23:41:57.795Z,97679.34
2022-10-18T23:44:24.176Z,97664.75
2022-10-18T23:46:50.488Z,97678.34
2022-10-18T23:49:16.818Z,97682.50
2022-10-18T23:51:43.228Z,97682.41
2022-10-18T23:54:09.555Z,97684.91
2022-10-18T23:56:35.900Z,97689.16
2022-10-18T23:59:02.435Z,97689.13
